sensor_id;sensor_type;location;lat;lon;timestamp;P1;durP1;ratioP1;P2;durP2;ratioP2
61899;SDS011;47853;55.890;37.664;2022-11-15T00:01:06;2.65;;;0.65;;
61899;SDS011;47853;55.890;37.664;2022-11-15T00:03:32;1.77;;;0.70;;
61899;SDS011;47853;55.890;37.664;2022-11-15T00:06:01;2.92;;;0.75;;
61899;SDS011;47853;55.890;37.664;2022-11-15T00:08:29;1.83;;;0.77;;
61899;SDS011;47853;55.890;37.664;2022-11-15T00:10:59;1.83;;;0.63;;
61899;SDS011;47853;55.890;37.664;2022-11-15T00:13:26;3.38;;;0.85;;
61899;SDS011;47853;55.890;37.664;2022-11-15T00:15:52;1.10;;;0.85;;
61899;SDS011;47853;55.890;37.664;2022-11-15T00:18:21;2.92;;;0.80;;
61899;SDS011;47853;55.890;37.664;2022-11-15T00:20:46;5.95;;;1.00;;
61899;SDS011;47853;55.890;37.664;2022-11-15T00:23:11;3.83;;;0.95;;
61899;SDS011;47853;55.890;37.664;2022-11-15T00:25:37;2.53;;;1.02;;
61899;SDS011;47853;55.890;37.664;2022-11-15T00:28:02;3.30;;;0.80;;
61899;SDS011;47853;55.890;37.664;2022-11-15T00:30:28;3.80;;;0.70;;
61899;SDS011;47853;55.890;37.664;2022-11-15T00:32:53;4.07;;;1.27;;
61899;SDS011;47853;55.890;37.664;2022-11-15T00:35:19;2.60;;;1.00;;
61899;SDS011;47853;55.890;37.664;2022-11-15T00:37:45;4.28;;;1.00;;
61899;SDS011;47853;55.890;37.664;2022-11-15T00:40:11;2.85;;;1.45;;
61899;SDS011;47853;55.890;37.664;2022-11-15T00:42:36;4.30;;;0.88;;
61899;SDS011;47853;55.890;37.664;2022-11-15T00:45:01;2.33;;;0.73;;
61899;SDS011;47853;55.890;37.664;2022-11-15T00:47:27;1.92;;;0.90;;
61899;SDS011;47853;55.890;37.664;2022-11-15T00:49:52;1.23;;;0.70;;
61899;SDS011;47853;55.890;37.664;2022-11-15T00:52:18;2.00;;;0.60;;
61899;SDS011;47853;55.890;37.664;2022-11-15T00:54:43;1.80;;;0.70;;
61899;SDS011;47853;55.890;37.664;2022-11-15T00:57:08;1.45;;;0.70;;
61899;SDS011;47853;55.890;37.664;2022-11-15T00:59:34;2.28;;;0.75;;
61899;SDS011;47853;55.890;37.664;2022-11-15T01:01:59;3.08;;;0.70;;
61899;SDS011;47853;55.890;37.664;2022-11-15T01:04:25;2.78;;;1.02;;
61899;SDS011;47853;55.890;37.664;2022-11-15T01:06:50;2.15;;;0.70;;
61899;SDS011;47853;55.890;37.664;2022-11-15T01:09:15;1.63;;;0.90;;
61899;SDS011;47853;55.890;37.664;2022-11-15T01:11:41;2.38;;;0.90;;
61899;SDS011;47853;55.890;37.664;2022-11-15T01:14:06;2.25;;;1.17;;
61899;SDS011;47853;55.890;37.664;2022-11-15T01:16:32;2.45;;;1.13;;
61899;SDS011;47853;55.890;37.664;2022-11-15T01:18:57;3.92;;;0.90;;
61899;SDS011;47853;55.890;37.664;2022-11-15T01:21:22;2.53;;;0.88;;
61899;SDS011;47853;55.890;37.664;2022-11-15T01:23:48;5.18;;;0.90;;
61899;SDS011;47853;55.890;37.664;2022-11-15T01:26:13;3.38;;;1.00;;
61899;SDS011;47853;55.890;37.664;2022-11-15T01:28:40;1.35;;;0.82;;
61899;SDS011;47853;55.890;37.664;2022-11-15T01:31:09;1.88;;;0.90;;
61899;SDS011;47853;55.890;37.664;2022-11-15T01:33:38;3.00;;;1.02;;
61899;SDS011;47853;55.890;37.664;2022-11-15T01:36:07;2.05;;;0.93;;
61899;SDS011;47853;55.890;37.664;2022-11-15T01:38:35;3.42;;;0.80;;
61899;SDS011;47853;55.890;37.664;2022-11-15T01:41:00;2.97;;;0.95;;
61899;SDS011;47853;55.890;37.664;2022-11-15T01:43:30;1.50;;;0.60;;
61899;SDS011;47853;55.890;37.664;2022-11-15T01:46:04;1.95;;;0.70;;
61899;SDS011;47853;55.890;37.664;2022-11-15T01:48:37;1.33;;;0.80;;
61899;SDS011;47853;55.890;37.664;2022-11-15T01:51:04;5.20;;;1.10;;
61899;SDS011;47853;55.890;37.664;2022-11-15T01:53:33;6.03;;;0.85;;
61899;SDS011;47853;55.890;37.664;2022-11-15T01:56:04;4.97;;;0.82;;
61899;SDS011;47853;55.890;37.664;2022-11-15T01:58:33;2.30;;;0.93;;
61899;SDS011;47853;55.890;37.664;2022-11-15T02:01:00;3.45;;;0.93;;
61899;SDS011;47853;55.890;37.664;2022-11-15T02:03:29;2.22;;;0.80;;
61899;SDS011;47853;55.890;37.664;2022-11-15T02:05:59;3.58;;;0.85;;
61899;SDS011;47853;55.890;37.664;2022-11-15T02:08:24;4.13;;;0.82;;
61899;SDS011;47853;55.890;37.664;2022-11-15T02:10:50;4.00;;;0.95;;
61899;SDS011;47853;55.890;37.664;2022-11-15T02:13:16;2.00;;;0.70;;
61899;SDS011;47853;55.890;37.664;2022-11-15T02:18:34;3.70;;;0.88;;
61899;SDS011;47853;55.890;37.664;2022-11-15T02:24:01;3.45;;;1.27;;
61899;SDS011;47853;55.890;37.664;2022-11-15T02:30:02;5.70;;;1.30;;
61899;SDS011;47853;55.890;37.664;2022-11-15T02:32:45;4.75;;;1.17;;
61899;SDS011;47853;55.890;37.664;2022-11-15T02:37:45;2.30;;;0.80;;
61899;SDS011;47853;55.890;37.664;2022-11-15T02:40:26;3.20;;;0.90;;
61899;SDS011;47853;55.890;37.664;2022-11-15T02:43:04;2.45;;;0.95;;
61899;SDS011;47853;55.890;37.664;2022-11-15T02:45:39;3.28;;;0.93;;
61899;SDS011;47853;55.890;37.664;2022-11-15T02:48:11;2.10;;;0.80;;
61899;SDS011;47853;55.890;37.664;2022-11-15T02:50:37;1.85;;;0.70;;
61899;SDS011;47853;55.890;37.664;2022-11-15T02:53:03;3.30;;;0.90;;
61899;SDS011;47853;55.890;37.664;2022-11-15T02:58:19;4.75;;;0.98;;
61899;SDS011;47853;55.890;37.664;2022-11-15T03:01:09;4.70;;;1.27;;
61899;SDS011;47853;55.890;37.664;2022-11-15T03:11:58;3.55;;;1.33;;
61899;SDS011;47853;55.890;37.664;2022-11-15T03:14:36;3.38;;;0.98;;
61899;SDS011;47853;55.890;37.664;2022-11-15T03:19:47;3.33;;;1.15;;
61899;SDS011;47853;55.890;37.664;2022-11-15T03:22:16;3.70;;;1.05;;
61899;SDS011;47853;55.890;37.664;2022-11-15T03:24:43;6.80;;;1.45;;
61899;SDS011;47853;55.890;37.664;2022-11-15T03:27:12;4.60;;;1.05;;
61899;SDS011;47853;55.890;37.664;2022-11-15T03:29:43;3.17;;;1.20;;
61899;SDS011;47853;55.890;37.664;2022-11-15T03:32:14;4.65;;;1.23;;
61899;SDS011;47853;55.890;37.664;2022-11-15T03:37:13;3.25;;;1.20;;
61899;SDS011;47853;55.890;37.664;2022-11-15T03:39:41;4.68;;;1.27;;
61899;SDS011;47853;55.890;37.664;2022-11-15T03:42:11;6.95;;;1.80;;
61899;SDS011;47853;55.890;37.664;2022-11-15T03:44:57;3.08;;;1.10;;
61899;SDS011;47853;55.890;37.664;2022-11-15T03:47:32;3.85;;;1.48;;
61899;SDS011;47853;55.890;37.664;2022-11-15T03:50:07;5.82;;;1.30;;
61899;SDS011;47853;55.890;37.664;2022-11-15T03:55:01;5.40;;;1.40;;
61899;SDS011;47853;55.890;37.664;2022-11-15T03:57:28;3.30;;;1.30;;
61899;SDS011;47853;55.890;37.664;2022-11-15T03:59:54;6.05;;;1.38;;
61899;SDS011;47853;55.890;37.664;2022-11-15T04:02:19;4.68;;;1.10;;
61899;SDS011;47853;55.890;37.664;2022-11-15T04:04:45;3.63;;;1.27;;
61899;SDS011;47853;55.890;37.664;2022-11-15T04:07:10;8.45;;;1.30;;
61899;SDS011;47853;55.890;37.664;2022-11-15T04:09:35;4.68;;;1.10;;
61899;SDS011;47853;55.890;37.664;2022-11-15T04:12:01;4.10;;;1.50;;
61899;SDS011;47853;55.890;37.664;2022-11-15T04:14:26;3.83;;;1.05;;
61899;SDS011;47853;55.890;37.664;2022-11-15T04:16:51;3.80;;;1.27;;
61899;SDS011;47853;55.890;37.664;2022-11-15T04:19:16;3.30;;;1.02;;
61899;SDS011;47853;55.890;37.664;2022-11-15T04:21:42;2.42;;;1.15;;
61899;SDS011;47853;55.890;37.664;2022-11-15T04:24:07;2.30;;;1.00;;
61899;SDS011;47853;55.890;37.664;2022-11-15T04:26:32;6.25;;;1.40;;
61899;SDS011;47853;55.890;37.664;2022-11-15T04:28:58;3.25;;;1.17;;
61899;SDS011;47853;55.890;37.664;2022-11-15T04:31:24;8.52;;;1.65;;
61899;SDS011;47853;55.890;37.664;2022-11-15T04:33:49;7.20;;;2.80;;
61899;SDS011;47853;55.890;37.664;2022-11-15T04:36:14;6.95;;;1.90;;
61899;SDS011;47853;55.890;37.664;2022-11-15T04:38:40;7.75;;;1.38;;
61899;SDS011;47853;55.890;37.664;2022-11-15T04:41:05;12.32;;;2.20;;
61899;SDS011;47853;55.890;37.664;2022-11-15T04:43:30;3.22;;;1.30;;
61899;SDS011;47853;55.890;37.664;2022-11-15T04:45:56;3.35;;;1.55;;
61899;SDS011;47853;55.890;37.664;2022-11-15T04:48:21;5.78;;;1.92;;
61899;SDS011;47853;55.890;37.664;2022-11-15T04:50:49;5.05;;;1.40;;
61899;SDS011;47853;55.890;37.664;2022-11-15T04:53:15;4.65;;;1.52;;
61899;SDS011;47853;55.890;37.664;2022-11-15T04:55:43;7.10;;;1.80;;
61899;SDS011;47853;55.890;37.664;2022-11-15T04:58:09;8.05;;;1.52;;
61899;SDS011;47853;55.890;37.664;2022-11-15T05:00:35;7.35;;;1.38;;
61899;SDS011;47853;55.890;37.664;2022-11-15T05:03:00;6.18;;;1.63;;
61899;SDS011;47853;55.890;37.664;2022-11-15T05:05:25;4.88;;;1.42;;
61899;SDS011;47853;55.890;37.664;2022-11-15T05:07:51;5.78;;;1.95;;
61899;SDS011;47853;55.890;37.664;2022-11-15T05:10:16;4.90;;;1.30;;
61899;SDS011;47853;55.890;37.664;2022-11-15T05:12:42;5.07;;;1.35;;
61899;SDS011;47853;55.890;37.664;2022-11-15T05:15:07;3.03;;;1.23;;
61899;SDS011;47853;55.890;37.664;2022-11-15T05:17:33;8.00;;;1.65;;
61899;SDS011;47853;55.890;37.664;2022-11-15T05:19:59;6.63;;;2.53;;
61899;SDS011;47853;55.890;37.664;2022-11-15T05:22:24;6.50;;;1.33;;
61899;SDS011;47853;55.890;37.664;2022-11-15T05:24:49;6.25;;;1.55;;
61899;SDS011;47853;55.890;37.664;2022-11-15T05:27:15;3.63;;;1.42;;
61899;SDS011;47853;55.890;37.664;2022-11-15T05:29:40;8.90;;;1.63;;
61899;SDS011;47853;55.890;37.664;2022-11-15T05:32:06;4.18;;;1.50;;
61899;SDS011;47853;55.890;37.664;2022-11-15T05:34:34;4.55;;;1.35;;
61899;SDS011;47853;55.890;37.664;2022-11-15T05:36:59;4.03;;;1.48;;
61899;SDS011;47853;55.890;37.664;2022-11-15T05:39:24;5.55;;;1.45;;
61899;SDS011;47853;55.890;37.664;2022-11-15T05:41:59;4.30;;;1.77;;
61899;SDS011;47853;55.890;37.664;2022-11-15T05:44:30;5.60;;;1.88;;
61899;SDS011;47853;55.890;37.664;2022-11-15T05:46:57;8.63;;;2.85;;
61899;SDS011;47853;55.890;37.664;2022-11-15T05:49:25;6.97;;;2.45;;
61899;SDS011;47853;55.890;37.664;2022-11-15T05:51:55;4.57;;;1.30;;
61899;SDS011;47853;55.890;37.664;2022-11-15T05:54:21;5.82;;;1.92;;
61899;SDS011;47853;55.890;37.664;2022-11-15T05:56:49;4.32;;;2.30;;
61899;SDS011;47853;55.890;37.664;2022-11-15T05:59:14;2.95;;;1.25;;
61899;SDS011;47853;55.890;37.664;2022-11-15T06:01:41;6.38;;;1.88;;
61899;SDS011;47853;55.890;37.664;2022-11-15T06:04:06;24.60;;;12.88;;
61899;SDS011;47853;55.890;37.664;2022-11-15T06:06:31;8.50;;;3.13;;
61899;SDS011;47853;55.890;37.664;2022-11-15T06:08:57;4.45;;;1.60;;
61899;SDS011;47853;55.890;37.664;2022-11-15T06:11:22;8.27;;;2.03;;
61899;SDS011;47853;55.890;37.664;2022-11-15T06:13:47;7.40;;;1.67;;
61899;SDS011;47853;55.890;37.664;2022-11-15T06:16:13;7.35;;;1.35;;
61899;SDS011;47853;55.890;37.664;2022-11-15T06:18:38;6.03;;;1.42;;
61899;SDS011;47853;55.890;37.664;2022-11-15T06:21:04;7.63;;;2.00;;
61899;SDS011;47853;55.890;37.664;2022-11-15T06:23:33;6.05;;;1.35;;
61899;SDS011;47853;55.890;37.664;2022-11-15T06:25:59;3.15;;;1.63;;
61899;SDS011;47853;55.890;37.664;2022-11-15T06:28:35;15.57;;;8.10;;
61899;SDS011;47853;55.890;37.664;2022-11-15T06:31:08;4.03;;;1.50;;
61899;SDS011;47853;55.890;37.664;2022-11-15T06:33:34;3.67;;;1.65;;
61899;SDS011;47853;55.890;37.664;2022-11-15T06:36:03;4.63;;;1.95;;
61899;SDS011;47853;55.890;37.664;2022-11-15T06:38:30;12.82;;;6.18;;
61899;SDS011;47853;55.890;37.664;2022-11-15T06:41:00;6.45;;;1.60;;
61899;SDS011;47853;55.890;37.664;2022-11-15T06:43:27;8.90;;;2.10;;
61899;SDS011;47853;55.890;37.664;2022-11-15T06:45:52;5.57;;;3.40;;
61899;SDS011;47853;55.890;37.664;2022-11-15T06:48:17;10.35;;;1.45;;
61899;SDS011;47853;55.890;37.664;2022-11-15T06:50:43;4.13;;;2.17;;
61899;SDS011;47853;55.890;37.664;2022-11-15T06:53:21;4.03;;;1.63;;
61899;SDS011;47853;55.890;37.664;2022-11-15T06:55:47;2.13;;;0.95;;
61899;SDS011;47853;55.890;37.664;2022-11-15T06:58:12;3.70;;;1.40;;
61899;SDS011;47853;55.890;37.664;2022-11-15T07:00:38;5.20;;;1.67;;
61899;SDS011;47853;55.890;37.664;2022-11-15T07:03:03;6.63;;;1.67;;
61899;SDS011;47853;55.890;37.664;2022-11-15T07:05:28;7.57;;;1.75;;
61899;SDS011;47853;55.890;37.664;2022-11-15T07:07:55;1.77;;;1.58;;
61899;SDS011;47853;55.890;37.664;2022-11-15T07:10:21;5.40;;;1.52;;
61899;SDS011;47853;55.890;37.664;2022-11-15T07:12:48;4.88;;;1.60;;
61899;SDS011;47853;55.890;37.664;2022-11-15T07:15:14;2.38;;;1.40;;
61899;SDS011;47853;55.890;37.664;2022-11-15T07:17:40;6.05;;;1.60;;
61899;SDS011;47853;55.890;37.664;2022-11-15T07:20:05;3.60;;;1.42;;
61899;SDS011;47853;55.890;37.664;2022-11-15T07:22:31;2.95;;;1.27;;
61899;SDS011;47853;55.890;37.664;2022-11-15T07:24:56;3.42;;;1.45;;
61899;SDS011;47853;55.890;37.664;2022-11-15T07:27:21;5.45;;;1.63;;
61899;SDS011;47853;55.890;37.664;2022-11-15T07:29:47;6.80;;;1.70;;
61899;SDS011;47853;55.890;37.664;2022-11-15T07:32:12;5.95;;;1.95;;
61899;SDS011;47853;55.890;37.664;2022-11-15T07:34:37;4.72;;;2.00;;
61899;SDS011;47853;55.890;37.664;2022-11-15T07:37:03;8.45;;;2.03;;
61899;SDS011;47853;55.890;37.664;2022-11-15T07:39:28;8.55;;;2.20;;
61899;SDS011;47853;55.890;37.664;2022-11-15T07:41:53;7.38;;;2.20;;
61899;SDS011;47853;55.890;37.664;2022-11-15T07:44:19;17.52;;;8.50;;
61899;SDS011;47853;55.890;37.664;2022-11-15T07:46:44;13.93;;;2.88;;
61899;SDS011;47853;55.890;37.664;2022-11-15T07:49:09;6.28;;;1.98;;
61899;SDS011;47853;55.890;37.664;2022-11-15T07:51:35;20.67;;;8.35;;
61899;SDS011;47853;55.890;37.664;2022-11-15T07:54:00;20.10;;;5.82;;
61899;SDS011;47853;55.890;37.664;2022-11-15T07:56:25;17.15;;;6.03;;
61899;SDS011;47853;55.890;37.664;2022-11-15T07:58:51;14.00;;;3.95;;
61899;SDS011;47853;55.890;37.664;2022-11-15T08:01:16;7.75;;;2.63;;
61899;SDS011;47853;55.890;37.664;2022-11-15T08:03:41;4.50;;;2.08;;
61899;SDS011;47853;55.890;37.664;2022-11-15T08:06:07;6.90;;;2.50;;
61899;SDS011;47853;55.890;37.664;2022-11-15T08:08:32;9.27;;;2.22;;
61899;SDS011;47853;55.890;37.664;2022-11-15T08:10:58;5.15;;;2.08;;
61899;SDS011;47853;55.890;37.664;2022-11-15T08:13:23;8.18;;;2.40;;
61899;SDS011;47853;55.890;37.664;2022-11-15T08:15:49;10.10;;;2.28;;
61899;SDS011;47853;55.890;37.664;2022-11-15T08:18:15;9.15;;;2.33;;
61899;SDS011;47853;55.890;37.664;2022-11-15T08:20:41;9.48;;;3.58;;
61899;SDS011;47853;55.890;37.664;2022-11-15T08:23:07;6.03;;;2.17;;
61899;SDS011;47853;55.890;37.664;2022-11-15T08:25:35;11.25;;;2.53;;
61899;SDS011;47853;55.890;37.664;2022-11-15T08:28:02;14.95;;;2.28;;
61899;SDS011;47853;55.890;37.664;2022-11-15T08:30:29;5.22;;;1.80;;
61899;SDS011;47853;55.890;37.664;2022-11-15T08:32:55;13.38;;;7.13;;
61899;SDS011;47853;55.890;37.664;2022-11-15T08:35:22;14.93;;;4.45;;
61899;SDS011;47853;55.890;37.664;2022-11-15T08:37:48;13.88;;;3.33;;
61899;SDS011;47853;55.890;37.664;2022-11-15T08:40:13;6.97;;;2.13;;
61899;SDS011;47853;55.890;37.664;2022-11-15T08:42:39;4.60;;;1.77;;
61899;SDS011;47853;55.890;37.664;2022-11-15T08:45:04;6.43;;;1.88;;
61899;SDS011;47853;55.890;37.664;2022-11-15T08:47:30;12.35;;;2.50;;
61899;SDS011;47853;55.890;37.664;2022-11-15T08:49:56;12.35;;;2.85;;
61899;SDS011;47853;55.890;37.664;2022-11-15T08:52:21;11.02;;;2.30;;
61899;SDS011;47853;55.890;37.664;2022-11-15T08:54:46;3.85;;;2.00;;
61899;SDS011;47853;55.890;37.664;2022-11-15T08:57:12;6.80;;;2.22;;
61899;SDS011;47853;55.890;37.664;2022-11-15T08:59:37;9.23;;;2.70;;
61899;SDS011;47853;55.890;37.664;2022-11-15T09:02:03;8.80;;;2.20;;
61899;SDS011;47853;55.890;37.664;2022-11-15T09:04:28;17.55;;;2.80;;
61899;SDS011;47853;55.890;37.664;2022-11-15T09:06:54;6.30;;;2.10;;
61899;SDS011;47853;55.890;37.664;2022-11-15T09:09:19;8.60;;;3.20;;
61899;SDS011;47853;55.890;37.664;2022-11-15T09:11:45;6.65;;;2.50;;
61899;SDS011;47853;55.890;37.664;2022-11-15T09:14:11;10.63;;;2.15;;
61899;SDS011;47853;55.890;37.664;2022-11-15T09:16:37;10.98;;;2.38;;
61899;SDS011;47853;55.890;37.664;2022-11-15T09:19:03;11.48;;;2.63;;
61899;SDS011;47853;55.890;37.664;2022-11-15T09:21:28;10.40;;;2.72;;
61899;SDS011;47853;55.890;37.664;2022-11-15T09:23:54;7.57;;;2.13;;
61899;SDS011;47853;55.890;37.664;2022-11-15T09:26:20;3.05;;;2.00;;
61899;SDS011;47853;55.890;37.664;2022-11-15T09:28:45;7.47;;;2.53;;
61899;SDS011;47853;55.890;37.664;2022-11-15T09:31:11;8.02;;;3.25;;
61899;SDS011;47853;55.890;37.664;2022-11-15T09:33:36;4.82;;;2.35;;
61899;SDS011;47853;55.890;37.664;2022-11-15T09:36:06;14.15;;;2.72;;
61899;SDS011;47853;55.890;37.664;2022-11-15T09:38:33;11.07;;;2.58;;
61899;SDS011;47853;55.890;37.664;2022-11-15T09:46:50;12.07;;;2.65;;
61899;SDS011;47853;55.890;37.664;2022-11-15T09:49:53;11.85;;;3.53;;
61899;SDS011;47853;55.890;37.664;2022-11-15T09:52:22;12.25;;;3.30;;
61899;SDS011;47853;55.890;37.664;2022-11-15T09:54:48;6.95;;;2.85;;
61899;SDS011;47853;55.890;37.664;2022-11-15T09:57:16;8.00;;;2.42;;
61899;SDS011;47853;55.890;37.664;2022-11-15T09:59:55;6.85;;;2.42;;
61899;SDS011;47853;55.890;37.664;2022-11-15T10:04:52;9.30;;;2.70;;
61899;SDS011;47853;55.890;37.664;2022-11-15T10:07:20;10.45;;;2.92;;
61899;SDS011;47853;55.890;37.664;2022-11-15T10:09:56;10.77;;;2.97;;
61899;SDS011;47853;55.890;37.664;2022-11-15T10:12:33;15.43;;;3.60;;
61899;SDS011;47853;55.890;37.664;2022-11-15T10:15:03;9.70;;;3.10;;
61899;SDS011;47853;55.890;37.664;2022-11-15T10:20:26;6.22;;;2.55;;
61899;SDS011;47853;55.890;37.664;2022-11-15T10:22:56;15.43;;;3.25;;
61899;SDS011;47853;55.890;37.664;2022-11-15T10:25:29;8.30;;;2.95;;
61899;SDS011;47853;55.890;37.664;2022-11-15T10:27:57;8.18;;;2.90;;
61899;SDS011;47853;55.890;37.664;2022-11-15T10:30:38;10.98;;;3.33;;
61899;SDS011;47853;55.890;37.664;2022-11-15T10:41:15;9.07;;;2.83;;
61899;SDS011;47853;55.890;37.664;2022-11-15T10:43:40;8.45;;;3.00;;
61899;SDS011;47853;55.890;37.664;2022-11-15T10:46:19;8.73;;;3.20;;
61899;SDS011;47853;55.890;37.664;2022-11-15T10:48:46;11.02;;;2.63;;
61899;SDS011;47853;55.890;37.664;2022-11-15T10:51:22;14.35;;;3.08;;
61899;SDS011;47853;55.890;37.664;2022-11-15T10:53:50;15.15;;;2.92;;
61899;SDS011;47853;55.890;37.664;2022-11-15T10:56:16;9.02;;;3.47;;
61899;SDS011;47853;55.890;37.664;2022-11-15T10:58:51;16.85;;;3.15;;
61899;SDS011;47853;55.890;37.664;2022-11-15T11:01:22;14.32;;;3.28;;
61899;SDS011;47853;55.890;37.664;2022-11-15T11:03:59;7.15;;;3.00;;
61899;SDS011;47853;55.890;37.664;2022-11-15T11:06:26;15.57;;;3.78;;
61899;SDS011;47853;55.890;37.664;2022-11-15T11:08:54;7.93;;;3.20;;
61899;SDS011;47853;55.890;37.664;2022-11-15T11:11:47;9.60;;;3.45;;
61899;SDS011;47853;55.890;37.664;2022-11-15T11:14:21;20.33;;;4.35;;
61899;SDS011;47853;55.890;37.664;2022-11-15T11:19:35;8.10;;;3.22;;
61899;SDS011;47853;55.890;37.664;2022-11-15T11:30:30;12.65;;;3.88;;
61899;SDS011;47853;55.890;37.664;2022-11-15T11:33:16;16.73;;;3.63;;
61899;SDS011;47853;55.890;37.664;2022-11-15T11:47:00;11.90;;;3.35;;
61899;SDS011;47853;55.890;37.664;2022-11-15T11:52:18;11.30;;;3.08;;
61899;SDS011;47853;55.890;37.664;2022-11-15T11:55:13;9.52;;;3.10;;
61899;SDS011;47853;55.890;37.664;2022-11-15T11:57:53;18.75;;;3.90;;
61899;SDS011;47853;55.890;37.664;2022-11-15T12:00:33;12.07;;;3.22;;
61899;SDS011;47853;55.890;37.664;2022-11-15T12:03:28;10.57;;;3.70;;
61899;SDS011;47853;55.890;37.664;2022-11-15T12:06:09;9.93;;;3.58;;
61899;SDS011;47853;55.890;37.664;2022-11-15T12:17:23;14.57;;;5.07;;
61899;SDS011;47853;55.890;37.664;2022-11-15T12:19:52;8.43;;;3.45;;
61899;SDS011;47853;55.890;37.664;2022-11-15T12:22:23;13.48;;;3.45;;
61899;SDS011;47853;55.890;37.664;2022-11-15T12:24:59;14.25;;;3.85;;
61899;SDS011;47853;55.890;37.664;2022-11-15T12:27:41;12.85;;;3.58;;
61899;SDS011;47853;55.890;37.664;2022-11-15T12:30:18;6.20;;;3.47;;
61899;SDS011;47853;55.890;37.664;2022-11-15T12:33:04;17.08;;;3.80;;
61899;SDS011;47853;55.890;37.664;2022-11-15T12:40:33;12.38;;;3.63;;
61899;SDS011;47853;55.890;37.664;2022-11-15T12:43:01;14.90;;;3.83;;
61899;SDS011;47853;55.890;37.664;2022-11-15T12:58:56;7.68;;;3.83;;
61899;SDS011;47853;55.890;37.664;2022-11-15T13:12:01;10.07;;;4.15;;
61899;SDS011;47853;55.890;37.664;2022-11-15T13:17:22;11.05;;;4.32;;
61899;SDS011;47853;55.890;37.664;2022-11-15T13:22:38;12.82;;;4.18;;
61899;SDS011;47853;55.890;37.664;2022-11-15T13:31:01;6.13;;;3.55;;
61899;SDS011;47853;55.890;37.664;2022-11-15T13:33:43;9.35;;;3.75;;
61899;SDS011;47853;55.890;37.664;2022-11-15T13:36:15;11.85;;;3.90;;
61899;SDS011;47853;55.890;37.664;2022-11-15T13:38:55;13.27;;;4.40;;
61899;SDS011;47853;55.890;37.664;2022-11-15T13:41:22;11.45;;;3.70;;
61899;SDS011;47853;55.890;37.664;2022-11-15T13:43:50;10.02;;;3.72;;
61899;SDS011;47853;55.890;37.664;2022-11-15T13:46:18;13.98;;;4.53;;
61899;SDS011;47853;55.890;37.664;2022-11-15T13:48:44;11.32;;;4.13;;
61899;SDS011;47853;55.890;37.664;2022-11-15T13:56:53;11.95;;;4.90;;
61899;SDS011;47853;55.890;37.664;2022-11-15T13:59:24;10.35;;;4.05;;
61899;SDS011;47853;55.890;37.664;2022-11-15T14:01:52;8.95;;;4.28;;
61899;SDS011;47853;55.890;37.664;2022-11-15T14:04:22;13.20;;;5.40;;
61899;SDS011;47853;55.890;37.664;2022-11-15T14:06:51;14.57;;;6.00;;
61899;SDS011;47853;55.890;37.664;2022-11-15T14:11:51;11.43;;;4.47;;
61899;SDS011;47853;55.890;37.664;2022-11-15T14:14:19;10.10;;;4.88;;
61899;SDS011;47853;55.890;37.664;2022-11-15T14:16:48;13.60;;;4.13;;
61899;SDS011;47853;55.890;37.664;2022-11-15T14:24:45;11.50;;;4.63;;
61899;SDS011;47853;55.890;37.664;2022-11-15T14:27:29;15.57;;;4.97;;
61899;SDS011;47853;55.890;37.664;2022-11-15T14:32:46;14.50;;;4.75;;
61899;SDS011;47853;55.890;37.664;2022-11-15T14:35:14;11.80;;;4.07;;
61899;SDS011;47853;55.890;37.664;2022-11-15T14:37:43;12.93;;;4.97;;
61899;SDS011;47853;55.890;37.664;2022-11-15T14:40:11;14.30;;;5.25;;
61899;SDS011;47853;55.890;37.664;2022-11-15T14:42:42;13.50;;;5.07;;
61899;SDS011;47853;55.890;37.664;2022-11-15T14:45:12;12.55;;;5.28;;
61899;SDS011;47853;55.890;37.664;2022-11-15T14:47:39;11.20;;;6.53;;
61899;SDS011;47853;55.890;37.664;2022-11-15T14:50:04;17.27;;;4.60;;
61899;SDS011;47853;55.890;37.664;2022-11-15T14:52:31;11.73;;;4.47;;
61899;SDS011;47853;55.890;37.664;2022-11-15T14:54:59;11.70;;;5.53;;
61899;SDS011;47853;55.890;37.664;2022-11-15T14:57:25;12.57;;;5.50;;
61899;SDS011;47853;55.890;37.664;2022-11-15T14:59:51;11.32;;;5.47;;
61899;SDS011;47853;55.890;37.664;2022-11-15T15:02:18;16.60;;;8.95;;
61899;SDS011;47853;55.890;37.664;2022-11-15T15:04:51;35.10;;;17.60;;
61899;SDS011;47853;55.890;37.664;2022-11-15T15:07:17;17.17;;;6.53;;
61899;SDS011;47853;55.890;37.664;2022-11-15T15:09:43;17.77;;;5.63;;
61899;SDS011;47853;55.890;37.664;2022-11-15T15:12:19;12.48;;;6.43;;
61899;SDS011;47853;55.890;37.664;2022-11-15T15:14:46;15.20;;;6.93;;
61899;SDS011;47853;55.890;37.664;2022-11-15T15:17:13;12.80;;;6.57;;
61899;SDS011;47853;55.890;37.664;2022-11-15T15:19:39;12.07;;;5.55;;
61899;SDS011;47853;55.890;37.664;2022-11-15T15:22:05;11.98;;;5.38;;
61899;SDS011;47853;55.890;37.664;2022-11-15T15:24:30;12.93;;;5.38;;
61899;SDS011;47853;55.890;37.664;2022-11-15T15:26:56;12.80;;;5.95;;
61899;SDS011;47853;55.890;37.664;2022-11-15T15:29:21;14.10;;;5.53;;
61899;SDS011;47853;55.890;37.664;2022-11-15T15:31:47;13.43;;;5.45;;
61899;SDS011;47853;55.890;37.664;2022-11-15T15:34:12;14.25;;;6.45;;
61899;SDS011;47853;55.890;37.664;2022-11-15T15:36:37;17.98;;;7.63;;
61899;SDS011;47853;55.890;37.664;2022-11-15T15:39:03;14.95;;;7.35;;
61899;SDS011;47853;55.890;37.664;2022-11-15T15:41:28;14.43;;;6.72;;
61899;SDS011;47853;55.890;37.664;2022-11-15T15:43:56;11.35;;;6.00;;
61899;SDS011;47853;55.890;37.664;2022-11-15T15:46:24;18.98;;;7.05;;
61899;SDS011;47853;55.890;37.664;2022-11-15T15:48:49;18.88;;;7.88;;
61899;SDS011;47853;55.890;37.664;2022-11-15T15:51:16;11.13;;;6.30;;
61899;SDS011;47853;55.890;37.664;2022-11-15T15:53:41;14.70;;;7.20;;
61899;SDS011;47853;55.890;37.664;2022-11-15T15:56:09;15.52;;;7.22;;
61899;SDS011;47853;55.890;37.664;2022-11-15T15:58:35;15.10;;;7.20;;
61899;SDS011;47853;55.890;37.664;2022-11-15T16:01:00;21.75;;;7.25;;
61899;SDS011;47853;55.890;37.664;2022-11-15T16:03:26;14.02;;;8.38;;
61899;SDS011;47853;55.890;37.664;2022-11-15T16:05:51;18.95;;;11.73;;
61899;SDS011;47853;55.890;37.664;2022-11-15T16:08:23;17.70;;;7.65;;
61899;SDS011;47853;55.890;37.664;2022-11-15T16:10:49;16.90;;;8.10;;
61899;SDS011;47853;55.890;37.664;2022-11-15T16:13:15;14.00;;;8.02;;
61899;SDS011;47853;55.890;37.664;2022-11-15T16:15:40;14.90;;;8.20;;
61899;SDS011;47853;55.890;37.664;2022-11-15T16:18:08;20.58;;;8.23;;
61899;SDS011;47853;55.890;37.664;2022-11-15T16:20:40;19.85;;;9.95;;
61899;SDS011;47853;55.890;37.664;2022-11-15T16:23:11;13.90;;;7.63;;
61899;SDS011;47853;55.890;37.664;2022-11-15T16:28:21;18.63;;;9.57;;
61899;SDS011;47853;55.890;37.664;2022-11-15T16:37:19;20.42;;;11.48;;
61899;SDS011;47853;55.890;37.664;2022-11-15T16:39:47;23.08;;;9.63;;
61899;SDS011;47853;55.890;37.664;2022-11-15T16:42:12;15.35;;;9.50;;
61899;SDS011;47853;55.890;37.664;2022-11-15T16:44:37;14.95;;;9.35;;
61899;SDS011;47853;55.890;37.664;2022-11-15T16:47:03;18.42;;;10.32;;
61899;SDS011;47853;55.890;37.664;2022-11-15T16:49:28;16.58;;;9.35;;
61899;SDS011;47853;55.890;37.664;2022-11-15T16:51:53;18.05;;;9.75;;
61899;SDS011;47853;55.890;37.664;2022-11-15T16:54:19;20.90;;;9.57;;
61899;SDS011;47853;55.890;37.664;2022-11-15T16:56:44;19.67;;;9.27;;
61899;SDS011;47853;55.890;37.664;2022-11-15T16:59:13;16.30;;;9.27;;
61899;SDS011;47853;55.890;37.664;2022-11-15T17:01:41;15.27;;;9.75;;
61899;SDS011;47853;55.890;37.664;2022-11-15T17:04:08;16.98;;;10.27;;